Dinteloord, Netherlands
Current Conditions -  °F | °C
As of 6:41 AM on Saturday 20 Dec 2014 (Local Time) from EHWO Reporting Station
Broken Clouds Broken Clouds  
Wind Chill: 34°   Ceiling: 2400
Heat Index: 41°   Visibility: 6mi
Dew Point: 37°   Wind: 13mph
Humidity: 87%   Direction: 220°SW
Pressure: 30.15"   Gusts: NA
Location:  51.64°N, 4.37°E
Report Text: EHWO 200541Z AUTO 22011KT 9999 SCT020 BKN024 05/03 Q1021 WHT
Loading
Personal Weather Stations






























Interactive Weather Map New forecast layout! Learn more

10-Day Weather Forecast

Advertisements
Track Severe Weather on mobile